Time;durP1;ratioP1;P1;durP2;ratioP2;P2;SDS_P1;SDS_P2;PMS_P1;PMS_P2;Temp;Humidity;BMP_temperature;BMP_pressure;BME280_temperature;BME280_humidity;BME280_pressure;Samples;Min_cycle;Max_cycle;Signal;HPM_P1;HPM_P2
2024/03/22 00:01:10;;;;;;;55.72;25.02;;;;;;;10.14;100.00;102101.47;5042465;28;20032;-77
2024/03/22 00:03:35;;;;;;;53.67;24.02;;;;;;;10.14;100.00;102098.00;5041922;28;20350;-78
2024/03/22 00:06:00;;;;;;;59.40;25.15;;;;;;;10.15;100.00;102102.31;5049719;28;20116;-77
2024/03/22 00:08:26;;;;;;;55.65;25.02;;;;;;;10.10;100.00;102099.81;5035074;28;20344;-77
2024/03/22 00:10:51;;;;;;;53.80;24.90;;;;;;;10.07;100.00;102091.16;5044902;28;20045;-77
2024/03/22 00:13:16;;;;;;;55.45;25.23;;;;;;;10.05;100.00;102083.31;5042540;28;20064;-77
2024/03/22 00:15:44;;;;;;;56.83;24.52;;;;;;;10.04;100.00;102085.97;5054617;28;20335;-77
2024/03/22 00:18:09;;;;;;;52.97;24.20;;;;;;;10.02;100.00;102072.03;5041198;28;20033;-77
2024/03/22 00:20:35;;;;;;;57.00;24.90;;;;;;;9.97;100.00;102067.78;5046435;28;20075;-77
2024/03/22 00:23:00;;;;;;;58.22;26.23;;;;;;;9.96;100.00;102075.66;5037965;28;20081;-77
2024/03/22 00:25:25;;;;;;;55.13;25.08;;;;;;;9.98;100.00;102066.84;5062619;28;20044;-78
2024/03/22 00:27:51;;;;;;;55.72;25.73;;;;;;;9.98;100.00;102066.00;5038056;28;20033;-77
2024/03/22 00:30:16;;;;;;;65.75;27.17;;;;;;;9.94;100.00;102066.97;5046529;28;20336;-77
2024/03/22 00:32:44;;;;;;;54.55;24.40;;;;;;;9.93;100.00;102050.41;5036006;28;20362;-77
2024/03/22 00:35:09;;;;;;;63.42;27.92;;;;;;;9.89;100.00;102050.47;5037269;28;20108;-77
2024/03/22 00:37:35;;;;;;;57.03;25.50;;;;;;;9.93;100.00;102050.41;5035722;28;20041;-77
2024/03/22 00:40:00;;;;;;;53.60;24.60;;;;;;;9.96;100.00;102041.63;5048722;28;20051;-77
2024/03/22 00:42:26;;;;;;;63.03;26.95;;;;;;;9.98;100.00;102038.06;5071557;28;20037;-77
2024/03/22 00:44:51;;;;;;;58.13;25.77;;;;;;;9.88;100.00;102041.78;5049623;28;20041;-76
2024/03/22 00:47:17;;;;;;;58.08;25.33;;;;;;;9.80;100.00;102033.19;5041643;28;20260;-77
2024/03/22 00:49:42;;;;;;;76.63;28.77;;;;;;;9.75;100.00;102022.81;5042171;28;20120;-77
2024/03/22 00:52:07;;;;;;;70.47;28.38;;;;;;;9.73;100.00;102022.00;5037657;28;20025;-77
2024/03/22 00:54:33;;;;;;;64.80;27.00;;;;;;;9.81;100.00;102016.59;5047524;28;20064;-77
2024/03/22 00:56:58;;;;;;;69.57;28.17;;;;;;;9.80;100.00;102015.75;5053929;28;20351;-77
2024/03/22 00:59:23;;;;;;;60.83;26.60;;;;;;;9.82;100.00;102020.09;5051488;28;20041;-77
2024/03/22 01:01:49;;;;;;;59.53;25.48;;;;;;;9.73;100.00;102011.53;5037160;28;20253;-77
2024/03/22 01:04:14;;;;;;;66.63;24.83;;;;;;;9.71;100.00;102009.81;5072045;28;20075;-77
2024/03/22 01:06:39;;;;;;;66.57;25.45;;;;;;;9.61;100.00;102009.97;5043048;28;20033;-77
2024/03/22 01:09:06;;;;;;;68.03;25.55;;;;;;;9.55;100.00;102012.72;5052002;28;20033;-77
2024/03/22 01:11:31;;;;;;;60.53;24.52;;;;;;;9.55;100.00;102022.28;5054121;28;20060;-77
2024/03/22 01:13:56;;;;;;;58.78;24.42;;;;;;;9.53;100.00;102019.72;5041354;28;20193;-77
2024/03/22 01:19:44;;;;;;;60.10;23.73;;;;;;;9.47;100.00;102026.81;5059873;28;20027;-77
2024/03/22 01:22:09;;;;;;;71.80;24.65;;;;;;;9.46;100.00;102031.19;5042709;28;20120;-77
2024/03/22 01:24:34;;;;;;;60.53;22.83;;;;;;;9.44;100.00;102032.97;5054282;28;20343;-78
2024/03/22 01:27:00;;;;;;;58.50;23.35;;;;;;;9.43;100.00;102026.00;5057964;28;20096;-77
2024/03/22 01:29:27;;;;;;;62.80;24.48;;;;;;;9.42;100.00;102029.50;5054777;28;20025;-77
2024/03/22 01:31:52;;;;;;;60.33;23.65;;;;;;;9.45;100.00;102023.38;5058255;28;20043;-77
2024/03/22 01:34:18;;;;;;;60.88;24.95;;;;;;;9.39;100.00;102016.50;5059752;28;20251;-77
2024/03/22 01:36:44;;;;;;;53.63;21.63;;;;;;;9.43;100.00;102001.63;5058453;28;20086;-77
2024/03/22 01:39:09;;;;;;;60.45;23.10;;;;;;;9.43;100.00;101996.38;5059279;28;20045;-77
2024/03/22 01:41:34;;;;;;;58.22;22.88;;;;;;;9.44;100.00;101990.25;5057890;28;20060;-77
2024/03/22 01:44:00;;;;;;;47.95;20.83;;;;;;;9.46;100.00;101984.13;5060108;28;20090;-77
2024/03/22 01:46:25;;;;;;;46.92;22.35;;;;;;;9.53;100.00;101988.34;5048092;28;20033;-77
2024/03/22 01:48:51;;;;;;;46.30;21.45;;;;;;;9.51;100.00;101989.25;5041337;28;20069;-77
2024/03/22 01:51:17;;;;;;;48.88;20.13;;;;;;;9.43;100.00;101983.31;5040704;28;20342;-77
2024/03/22 01:53:43;;;;;;;44.60;20.02;;;;;;;9.41;100.00;101975.50;5050830;28;20132;-77
2024/03/22 01:56:09;;;;;;;48.38;21.50;;;;;;;9.50;100.00;101980.56;5047387;28;20061;-78
2024/03/22 01:58:34;;;;;;;41.42;19.55;;;;;;;9.49;100.00;101988.41;5041395;28;20326;-78
2024/03/22 02:01:00;;;;;;;42.78;19.42;;;;;;;9.52;100.00;101998.84;5043353;28;20040;-77
2024/03/22 02:03:25;;;;;;;37.03;18.90;;;;;;;9.46;100.00;101988.47;5058864;28;20040;-78
2024/03/22 02:05:51;;;;;;;39.55;19.08;;;;;;;9.39;100.00;101990.34;5069210;28;20052;-77
2024/03/22 02:08:17;;;;;;;39.75;18.70;;;;;;;9.39;100.00;101990.34;5069103;28;20032;-78
2024/03/22 02:10:43;;;;;;;33.50;18.48;;;;;;;9.37;100.00;101985.13;5077480;28;20082;-77
2024/03/22 02:13:08;;;;;;;37.28;19.05;;;;;;;9.38;100.00;101984.22;5076895;28;20024;-77
2024/03/22 02:15:34;;;;;;;37.03;18.52;;;;;;;9.40;100.00;101978.97;5072695;28;20130;-77
2024/03/22 02:17:59;;;;;;;36.67;18.35;;;;;;;9.45;100.00;101977.16;5062522;28;20037;-77
2024/03/22 02:20:24;;;;;;;33.33;17.33;;;;;;;9.43;100.00;101971.09;5059021;28;20041;-77
2024/03/22 02:22:50;;;;;;;37.08;17.80;;;;;;;9.35;100.00;101971.22;5071654;28;20043;-77
2024/03/22 02:25:15;;;;;;;36.72;17.05;;;;;;;9.41;100.00;101965.88;5070196;28;20033;-77
2024/03/22 02:27:41;;;;;;;39.63;17.98;;;;;;;9.47;100.00;101967.53;5064210;28;20039;-78
2024/03/22 02:30:07;;;;;;;35.65;16.63;;;;;;;9.38;100.00;101959.84;5054639;28;20032;-77
2024/03/22 02:32:32;;;;;;;39.30;17.48;;;;;;;9.38;100.00;101944.16;5051608;28;20028;-77
2024/03/22 02:34:57;;;;;;;33.38;16.70;;;;;;;9.34;100.00;101940.72;5077282;28;20107;-78
2024/03/22 02:37:23;;;;;;;35.35;16.73;;;;;;;9.31;100.00;101932.09;5069102;28;20039;-77
2024/03/22 02:39:48;;;;;;;32.10;16.00;;;;;;;9.28;100.00;101938.25;5078171;28;20148;-77
2024/03/22 02:42:13;;;;;;;33.40;15.05;;;;;;;9.26;100.00;101946.97;5077919;28;20245;-77
2024/03/22 02:44:42;;;;;;;43.55;15.48;;;;;;;9.28;100.00;101946.09;5076890;28;20344;-77
2024/03/22 02:47:12;;;;;;;33.28;15.93;;;;;;;9.23;100.00;101933.09;5076014;28;20235;-77
2024/03/22 02:49:38;;;;;;;30.23;15.45;;;;;;;9.27;100.00;101936.50;5062582;28;20388;-78
2024/03/22 02:52:04;;;;;;;37.10;15.50;;;;;;;9.28;100.00;101927.78;5059660;28;20067;-77
2024/03/22 02:54:29;;;;;;;34.85;16.00;;;;;;;9.29;100.00;101916.44;5074845;28;20043;-77
2024/03/22 02:56:55;;;;;;;31.70;15.35;;;;;;;9.35;100.00;101910.22;5073116;28;20043;-77
2024/03/22 02:59:20;;;;;;;35.08;16.13;;;;;;;9.26;100.00;101905.16;5069925;28;20033;-77
2024/03/22 03:01:45;;;;;;;30.25;15.02;;;;;;;9.22;100.00;101897.41;5071355;28;20090;-77
2024/03/22 03:04:10;;;;;;;30.77;14.90;;;;;;;9.31;100.00;101890.25;5070631;28;20320;-78
2024/03/22 03:06:36;;;;;;;32.53;14.55;;;;;;;9.29;100.00;101887.66;5076095;28;20032;-78
2024/03/22 03:09:01;;;;;;;27.55;13.90;;;;;;;9.31;100.00;101890.25;5064107;28;20043;-77
2024/03/22 03:11:27;;;;;;;33.50;14.90;;;;;;;9.30;100.00;101880.72;5063369;28;20032;-78
2024/03/22 03:13:52;;;;;;;33.38;13.80;;;;;;;9.28;100.00;101878.13;5077470;28;20095;-77
2024/03/22 03:16:17;;;;;;;33.03;14.32;;;;;;;9.28;100.00;101879.84;5065258;28;20036;-77
2024/03/22 03:18:43;;;;;;;34.25;14.55;;;;;;;9.29;100.00;101871.13;5076170;28;20093;-78
2024/03/22 03:21:08;;;;;;;32.53;14.23;;;;;;;9.27;100.00;101863.31;5078497;28;20043;-77
2024/03/22 03:23:33;;;;;;;32.95;12.73;;;;;;;9.34;100.00;101864.91;5072409;28;20036;-77
2024/03/22 03:25:59;;;;;;;35.60;14.02;;;;;;;9.30;100.00;101859.78;5068377;28;20063;-77
2024/03/22 03:28:26;;;;;;;29.75;13.60;;;;;;;9.35;100.00;101850.97;5069236;28;20051;-78
2024/03/22 03:30:51;;;;;;;33.70;14.07;;;;;;;9.33;100.00;101860.59;5060234;28;20279;-78
2024/03/22 03:33:16;;;;;;;27.45;13.73;;;;;;;9.32;100.00;101853.63;5070711;28;20047;-77
2024/03/22 03:35:46;;;;;;;26.52;14.52;;;;;;;9.33;100.00;101858.00;5061242;28;20064;-78
2024/03/22 03:38:11;;;;;;;30.52;14.15;;;;;;;9.33;100.00;101846.66;5058934;28;20108;-78
2024/03/22 03:40:36;;;;;;;28.88;13.50;;;;;;;9.33;100.00;101842.31;5070114;28;20040;-77
2024/03/22 03:43:02;;;;;;;25.73;13.35;;;;;;;9.32;100.00;101835.34;5058879;28;20025;-77
2024/03/22 03:45:27;;;;;;;27.23;12.68;;;;;;;9.30;100.00;101833.66;5069355;28;20132;-77
2024/03/22 03:47:52;;;;;;;32.20;12.90;;;;;;;9.33;100.00;101828.34;5066718;28;20117;-77
2024/03/22 03:50:18;;;;;;;31.08;13.30;;;;;;;9.35;100.00;101832.66;5069284;28;20321;-78
2024/03/22 03:52:43;;;;;;;32.38;12.80;;;;;;;9.33;100.00;101824.00;5075876;28;20240;-77
2024/03/22 03:55:08;;;;;;;30.40;12.20;;;;;;;9.36;100.00;101820.44;5070391;28;20358;-77
2024/03/22 03:57:34;;;;;;;24.88;10.75;;;;;;;9.38;100.00;101823.91;5063345;28;20040;-78
2024/03/22 03:59:59;;;;;;;22.77;10.52;;;;;;;9.38;100.00;101821.28;5073149;28;20029;-77
2024/03/22 04:02:24;;;;;;;29.33;12.02;;;;;;;9.34;100.00;101823.09;5057275;28;20128;-77
2024/03/22 04:04:53;;;;;;;29.25;12.52;;;;;;;9.35;100.00;101814.38;5058254;28;20040;-79
2024/03/22 04:07:18;;;;;;;36.60;12.82;;;;;;;9.30;100.00;101816.22;5071238;28;20115;-77
2024/03/22 04:09:43;;;;;;;29.25;12.30;;;;;;;9.30;100.00;101823.19;5068300;28;20221;-77
2024/03/22 04:12:08;;;;;;;25.50;11.98;;;;;;;9.30;100.00;101816.22;5067189;28;20036;-78
2024/03/22 04:14:34;;;;;;;30.17;12.55;;;;;;;9.29;100.00;101822.31;5076596;28;20090;-78
2024/03/22 04:16:59;;;;;;;31.33;11.93;;;;;;;9.29;100.00;101824.06;5063112;28;20025;-77
2024/03/22 04:19:25;;;;;;;28.13;12.60;;;;;;;9.31;100.00;101828.38;5077203;28;20100;-77
2024/03/22 04:21:50;;;;;;;29.50;14.00;;;;;;;9.32;100.00;101827.50;5062734;28;20037;-78
2024/03/22 04:24:15;;;;;;;31.42;13.88;;;;;;;9.33;100.00;101830.97;5075757;28;20064;-77
2024/03/22 04:26:41;;;;;;;38.75;15.80;;;;;;;9.25;100.00;101828.50;5075172;28;20556;-77
2024/03/22 04:29:06;;;;;;;30.38;14.88;;;;;;;9.28;100.00;101831.06;5061174;28;20033;-77
2024/03/22 04:31:32;;;;;;;32.25;15.98;;;;;;;9.22;100.00;101826.81;5060713;28;20147;-77
2024/03/22 04:33:57;;;;;;;34.78;16.50;;;;;;;9.19;100.00;101831.25;5072881;28;20091;-77
2024/03/22 04:36:22;;;;;;;35.67;16.45;;;;;;;9.15;100.00;101840.00;5071200;28;20028;-78
2024/03/22 04:38:48;;;;;;;35.95;15.10;;;;;;;9.15;100.00;101840.00;5063693;28;20028;-78
2024/03/22 04:41:13;;;;;;;35.47;13.77;;;;;;;9.10;100.00;101844.50;5064115;28;20227;-78
2024/03/22 04:43:39;;;;;;;39.85;13.70;;;;;;;9.11;100.00;101831.38;5080916;28;20295;-77
2024/03/22 04:46:04;;;;;;;37.58;13.43;;;;;;;9.10;100.00;101828.81;5075185;28;20402;-77
2024/03/22 04:48:30;;;;;;;36.55;13.63;;;;;;;9.09;100.00;101837.53;5066193;28;20048;-77
2024/03/22 04:50:55;;;;;;;35.47;14.57;;;;;;;9.09;100.00;101853.22;5044282;28;20389;-77
2024/03/22 04:53:21;;;;;;;35.35;15.18;;;;;;;9.09;100.00;101837.53;5077661;28;20044;-77
2024/03/22 04:55:47;;;;;;;43.70;15.23;;;;;;;9.12;100.00;101837.47;5080205;28;20056;-77
2024/03/22 04:58:17;;;;;;;40.25;16.55;;;;;;;9.09;100.00;101843.59;5070066;28;20033;-77
2024/03/22 05:00:43;;;;;;;33.88;15.98;;;;;;;9.07;100.00;101840.16;5074535;28;20251;-77
2024/03/22 05:03:09;;;;;;;35.40;15.90;;;;;;;9.06;100.00;101841.06;5072572;28;20036;-77
2024/03/22 05:05:35;;;;;;;33.10;16.02;;;;;;;9.07;100.00;101831.47;5078676;28;20056;-78
2024/03/22 05:08:01;;;;;;;43.47;17.65;;;;;;;9.09;100.00;101838.38;5076872;28;20040;-77
2024/03/22 05:10:28;;;;;;;39.15;17.52;;;;;;;9.09;100.00;101834.91;5061531;28;20052;-77
2024/03/22 05:12:54;;;;;;;39.55;17.42;;;;;;;9.11;100.00;101835.75;5067968;28;20048;-77
2024/03/22 05:15:20;;;;;;;37.60;15.43;;;;;;;9.11;100.00;101835.75;5074238;28;20037;-78
2024/03/22 05:17:45;;;;;;;40.92;16.67;;;;;;;9.09;100.00;101827.94;5064861;28;20036;-77
2024/03/22 05:20:10;;;;;;;42.90;15.88;;;;;;;9.07;100.00;101828.84;5080832;28;20081;-78
2024/03/22 05:22:39;;;;;;;36.03;15.32;;;;;;;9.06;100.00;101819.28;5075151;28;20142;-78
2024/03/22 05:25:05;;;;;;;;;;;;;;;9.07;100.00;101815.78;5068345;28;20040;-77
2024/03/22 05:27:34;;;;;;;36.63;14.75;;;;;;;9.03;100.00;101818.44;5063281;28;20002;-77
2024/03/22 05:29:59;;;;;;;32.08;13.90;;;;;;;8.99;100.00;101808.97;5060171;28;20535;-77
2024/03/22 05:32:25;;;;;;;35.45;13.90;;;;;;;9.00;100.00;101809.81;5063379;28;20032;-77
2024/03/22 05:34:51;;;;;;;36.95;14.50;;;;;;;8.99;100.00;101808.09;5079501;28;20028;-77
2024/03/22 05:37:16;;;;;;;27.38;14.07;;;;;;;8.99;100.00;101805.50;5059682;28;20067;-77
2024/03/22 05:39:42;;;;;;;32.83;12.90;;;;;;;8.98;100.00;101796.75;5073798;28;20074;-77
2024/03/22 05:42:08;;;;;;;35.20;13.93;;;;;;;8.99;100.00;101810.72;5078305;28;20071;-77
2024/03/22 05:44:33;;;;;;;38.28;13.40;;;;;;;8.99;100.00;101797.66;5070646;28;20036;-77
2024/03/22 05:46:58;;;;;;;37.42;14.90;;;;;;;8.98;100.00;101807.22;5063658;28;20323;-77
2024/03/22 05:49:24;;;;;;;26.75;13.05;;;;;;;8.96;100.00;101797.69;5068601;28;20371;-77
2024/03/22 05:51:49;;;;;;;36.55;14.30;;;;;;;8.98;100.00;101788.06;5079154;28;20095;-77
2024/03/22 05:54:14;;;;;;;36.92;14.68;;;;;;;8.97;100.00;101786.38;5077562;28;20388;-77
2024/03/22 05:56:40;;;;;;;35.47;15.32;;;;;;;8.97;100.00;101781.16;5059132;28;20017;-77
2024/03/22 05:59:05;;;;;;;44.45;16.05;;;;;;;8.99;100.00;101781.97;5077572;28;20044;-77
2024/03/22 06:01:32;;;;;;;35.13;14.43;;;;;;;8.96;100.00;101779.41;5078241;28;20088;-77
2024/03/22 06:03:57;;;;;;;37.85;15.07;;;;;;;8.96;100.00;101777.66;5058389;28;20024;-78
2024/03/22 06:06:25;;;;;;;36.13;14.50;;;;;;;8.96;100.00;101775.03;5064047;28;20388;-77
2024/03/22 06:08:52;;;;;;;37.25;15.80;;;;;;;8.98;100.00;101777.63;5062602;28;20033;-77
2024/03/22 06:11:18;;;;;;;35.55;14.85;;;;;;;8.97;100.00;101768.94;5078413;28;20044;-77
2024/03/22 06:13:43;;;;;;;37.00;14.35;;;;;;;9.00;100.00;101768.88;5062638;28;20105;-77
2024/03/22 06:16:09;;;;;;;44.70;14.88;;;;;;;9.01;100.00;101767.97;5075805;28;20036;-77
2024/03/22 06:18:34;;;;;;;31.90;12.88;;;;;;;9.01;100.00;101767.97;5061068;28;20331;-77
2024/03/22 06:20:59;;;;;;;36.15;13.95;;;;;;;9.03;100.00;101766.19;5073602;28;20103;-76
2024/03/22 06:23:25;;;;;;;33.53;13.20;;;;;;;9.07;100.00;101763.53;5078410;28;20275;-76
2024/03/22 06:25:54;;;;;;;31.33;13.00;;;;;;;9.11;100.00;101773.88;5065744;28;20324;-77
2024/03/22 06:28:19;;;;;;;29.77;14.15;;;;;;;9.13;100.00;101772.13;5057940;28;20110;-76
2024/03/22 06:30:45;;;;;;;41.67;13.93;;;;;;;9.15;100.00;101777.28;5067914;28;20040;-76
2024/03/22 06:33:10;;;;;;;30.98;12.15;;;;;;;9.16;100.00;101776.41;5064450;28;20044;-77
2024/03/22 06:35:36;;;;;;;38.42;13.48;;;;;;;9.18;100.00;101780.69;5064960;28;20080;-77
2024/03/22 06:38:02;;;;;;;35.70;12.93;;;;;;;9.18;100.00;101788.53;5062343;28;20037;-77
2024/03/22 06:40:28;;;;;;;34.72;13.57;;;;;;;9.21;100.00;101785.88;5063042;28;20059;-77
2024/03/22 06:42:54;;;;;;;36.40;12.80;;;;;;;9.19;100.00;101776.38;5077919;28;20320;-77
2024/03/22 06:45:19;;;;;;;38.42;14.52;;;;;;;9.22;100.00;101787.63;5077197;28;20078;-77
2024/03/22 06:47:44;;;;;;;35.72;13.38;;;;;;;9.26;100.00;101780.56;5064503;28;20029;-76
2024/03/22 06:50:11;;;;;;;36.85;12.35;;;;;;;9.23;100.00;101781.47;5058325;28;20052;-77
2024/03/22 06:52:36;;;;;;;35.15;12.40;;;;;;;9.22;100.00;101781.50;5058841;28;20060;-77
2024/03/22 06:55:03;;;;;;;37.28;12.52;;;;;;;9.22;100.00;101787.63;5060468;28;20091;-77
2024/03/22 06:57:28;;;;;;;29.02;11.77;;;;;;;9.21;100.00;101774.56;5075544;28;20255;-77
2024/03/22 06:59:54;;;;;;;38.78;12.75;;;;;;;9.22;100.00;101774.53;5077498;28;20040;-77
2024/03/22 07:02:20;;;;;;;27.35;11.02;;;;;;;9.23;100.00;101781.47;5062057;28;20052;-77
2024/03/22 07:04:45;;;;;;;31.98;12.00;;;;;;;9.23;100.00;101770.16;5056430;28;20346;-77
2024/03/22 07:07:11;;;;;;;29.90;10.57;;;;;;;9.25;100.00;101781.44;5051363;28;20123;-77
2024/03/22 07:09:36;;;;;;;31.60;10.88;;;;;;;9.26;100.00;101777.06;5072416;28;20319;-76
2024/03/22 07:12:01;;;;;;;29.85;9.30;;;;;;;9.26;100.00;101777.06;5072312;28;20051;-77
2024/03/22 07:14:27;;;;;;;30.55;10.68;;;;;;;9.25;100.00;101773.63;5066565;28;20296;-77
2024/03/22 07:16:55;;;;;;;28.35;10.68;;;;;;;9.26;100.00;101777.97;5062562;28;20036;-77
2024/03/22 07:19:21;;;;;;;31.53;9.57;;;;;;;9.24;100.00;101769.28;5077089;28;20028;-76
2024/03/22 07:21:47;;;;;;;25.33;10.00;;;;;;;9.24;100.00;101777.13;5073101;28;20333;-77
2024/03/22 07:24:12;;;;;;;30.35;9.77;;;;;;;9.27;100.00;101773.59;5057253;28;20040;-77
2024/03/22 07:26:37;;;;;;;30.30;9.63;;;;;;;9.22;100.00;101778.88;5056097;28;20024;-77
2024/03/22 07:29:03;;;;;;;30.92;9.85;;;;;;;9.24;100.00;101782.38;5070612;28;20071;-77
2024/03/22 07:31:28;;;;;;;27.25;9.35;;;;;;;9.23;100.00;101778.00;5073438;28;20032;-77
2024/03/22 07:33:53;;;;;;;26.75;9.55;;;;;;;9.24;100.00;101774.53;5049800;28;20063;-77
2024/03/22 07:36:19;;;;;;;35.47;10.65;;;;;;;9.20;100.00;101778.06;5069925;28;20105;-77
2024/03/22 07:38:45;;;;;;;26.70;9.63;;;;;;;9.23;100.00;101768.41;5058524;28;20104;-77
2024/03/22 07:41:10;;;;;;;30.30;9.13;;;;;;;9.19;100.00;101776.38;5060228;28;20036;-77
2024/03/22 07:43:35;;;;;;;26.20;9.23;;;;;;;9.16;100.00;101764.19;5044024;28;20028;-77
2024/03/22 07:46:00;;;;;;;31.00;10.00;;;;;;;9.15;100.00;101766.84;5057334;28;20104;-77
2024/03/22 07:48:26;;;;;;;32.53;9.18;;;;;;;9.19;100.00;101773.75;5050821;28;20024;-77
2024/03/22 07:51:01;;;;;;;30.23;9.05;;;;;;;9.19;100.00;101760.69;5075820;28;20039;-77
2024/03/22 07:53:27;;;;;;;23.45;8.13;;;;;;;9.16;100.00;101764.19;5057831;28;20338;-77
2024/03/22 07:55:52;;;;;;;34.85;9.48;;;;;;;9.16;100.00;101771.19;5066428;28;20026;-77
2024/03/22 07:58:17;;;;;;;26.40;9.30;;;;;;;9.18;100.00;101756.31;5064658;28;20040;-77
2024/03/22 08:00:43;;;;;;;30.85;10.05;;;;;;;9.23;100.00;101757.09;5038901;28;20096;-77
2024/03/22 08:03:14;;;;;;;30.23;9.15;;;;;;;9.23;100.00;101765.78;5061931;28;20028;-78
2024/03/22 08:05:40;;;;;;;31.48;8.98;;;;;;;9.21;100.00;101769.34;5065073;28;20383;-77
2024/03/22 08:08:05;;;;;;;30.38;8.82;;;;;;;9.20;100.00;101775.44;5063250;28;20079;-77
2024/03/22 08:10:30;;;;;;;30.55;9.45;;;;;;;9.23;100.00;101764.94;5064105;28;20082;-78
2024/03/22 08:12:56;;;;;;;31.20;9.13;;;;;;;9.19;100.00;101771.13;5065451;28;20074;-77
2024/03/22 08:15:21;;;;;;;28.55;9.05;;;;;;;9.16;100.00;101764.19;5065096;28;20033;-77
2024/03/22 08:17:46;;;;;;;24.73;8.65;;;;;;;9.17;100.00;101759.84;5063368;28;20098;-77
2024/03/22 08:20:12;;;;;;;26.40;9.10;;;;;;;9.18;100.00;101767.63;5046461;28;20021;-77
2024/03/22 08:22:37;;;;;;;30.52;9.93;;;;;;;9.20;100.00;101778.06;5049028;28;20035;-77
2024/03/22 08:25:04;;;;;;;31.63;9.15;;;;;;;9.20;100.00;101768.50;5060360;28;20122;-78
2024/03/22 08:27:29;;;;;;;31.58;9.73;;;;;;;9.23;100.00;101770.16;5064471;28;20403;-77
2024/03/22 08:29:55;;;;;;;33.72;9.50;;;;;;;9.21;100.00;101777.19;5064227;28;20326;-78
2024/03/22 08:32:20;;;;;;;32.25;10.20;;;;;;;9.20;100.00;101773.72;5060453;28;20036;-77
2024/03/22 08:34:46;;;;;;;26.35;9.15;;;;;;;9.18;100.00;101761.56;5066022;28;20032;-78
2024/03/22 08:37:11;;;;;;;28.45;10.27;;;;;;;9.21;100.00;101762.34;5046616;28;20360;-77
2024/03/22 08:39:36;;;;;;;24.50;9.95;;;;;;;9.17;100.00;101763.31;5067892;28;20040;-77
2024/03/22 08:42:04;;;;;;;22.15;9.98;;;;;;;9.12;100.00;101767.78;5063348;28;20387;-77
2024/03/22 08:44:30;;;;;;;33.97;9.37;;;;;;;9.12;100.00;101764.31;5066048;28;20104;-77
2024/03/22 08:46:55;;;;;;;29.23;9.57;;;;;;;9.16;100.00;101751.13;5064595;28;20047;-78
2024/03/22 08:49:21;;;;;;;31.58;9.63;;;;;;;9.17;100.00;101762.47;5048961;28;20039;-78
2024/03/22 08:51:48;;;;;;;33.13;10.13;;;;;;;9.17;100.00;101749.41;5063401;28;20028;-78
2024/03/22 08:54:13;;;;;;;29.13;9.65;;;;;;;9.16;100.00;101763.34;5066977;28;20117;-78
2024/03/22 08:56:38;;;;;;;33.50;9.75;;;;;;;9.15;100.00;101757.25;5066392;28;20062;-78
2024/03/22 08:59:04;;;;;;;21.33;9.13;;;;;;;9.08;100.00;101762.63;5066050;28;20041;-77
2024/03/22 09:01:29;;;;;;;29.65;10.05;;;;;;;9.10;100.00;101755.63;5045055;28;20029;-77
2024/03/22 09:03:54;;;;;;;30.63;10.25;;;;;;;9.12;100.00;101752.09;5063318;28;20066;-78
2024/03/22 09:06:20;;;;;;;24.70;9.95;;;;;;;9.08;100.00;101747.81;5064778;28;20423;-77
2024/03/22 09:08:45;;;;;;;27.35;10.70;;;;;;;9.10;100.00;101743.44;5064457;28;20070;-78
2024/03/22 09:11:12;;;;;;;29.63;10.45;;;;;;;9.05;100.00;101747.88;5069196;28;20254;-77
2024/03/22 09:13:37;;;;;;;34.97;11.55;;;;;;;9.08;100.00;101747.81;5068424;28;20033;-78
2024/03/22 09:16:03;;;;;;;35.38;11.10;;;;;;;9.11;100.00;101745.13;5065959;28;20087;-78
2024/03/22 09:18:28;;;;;;;32.03;11.32;;;;;;;9.09;100.00;101740.84;5065224;28;20352;-78
2024/03/22 09:20:54;;;;;;;30.00;10.40;;;;;;;9.14;100.00;101745.06;5061895;28;20048;-78
2024/03/22 09:23:20;;;;;;;28.20;10.93;;;;;;;9.16;100.00;101742.44;5062097;28;20039;-77
2024/03/22 09:25:47;;;;;;;27.23;10.82;;;;;;;9.21;100.00;101746.69;5063906;28;20040;-78
2024/03/22 09:28:12;;;;;;;29.75;10.82;;;;;;;9.17;100.00;101750.25;5064962;28;20289;-78
2024/03/22 09:30:39;;;;;;;30.88;10.07;;;;;;;9.17;100.00;101750.25;5071922;28;20099;-78
2024/03/22 09:33:05;;;;;;;32.28;10.60;;;;;;;9.18;100.00;101748.50;5054616;28;20036;-78
2024/03/22 09:35:31;;;;;;;28.13;9.73;;;;;;;9.17;100.00;101744.19;5072946;28;20033;-78
2024/03/22 09:37:56;;;;;;;28.98;9.68;;;;;;;9.20;100.00;101744.97;5054879;28;20064;-77
2024/03/22 09:40:22;;;;;;;23.08;9.18;;;;;;;9.24;100.00;101743.16;5071917;28;20219;-78
2024/03/22 09:42:49;;;;;;;30.27;9.75;;;;;;;9.26;100.00;101746.59;5072432;28;20091;-78
2024/03/22 09:45:18;;;;;;;30.10;9.40;;;;;;;9.26;100.00;101740.47;5067022;28;20060;-78
2024/03/22 09:47:44;;;;;;;;;;;;;;;9.30;100.00;101742.16;5071972;28;20032;-78
2024/03/22 09:50:10;;;;;;;20.38;7.85;;;;;;;9.32;100.00;101741.22;5072518;28;19916;-78
2024/03/22 09:52:37;;;;;;;24.20;8.40;;;;;;;9.33;100.00;101735.13;5072981;28;20044;-78
2024/03/22 09:55:04;;;;;;;28.50;8.05;;;;;;;9.39;100.00;101731.50;5072966;28;20040;-78
2024/03/22 09:57:30;;;;;;;22.95;8.20;;;;;;;9.38;100.00;101733.25;5072207;28;20107;-78
2024/03/22 09:59:56;;;;;;;31.45;8.75;;;;;;;9.40;100.00;101733.22;5070670;28;20311;-77
2024/03/22 10:02:24;;;;;;;18.40;8.27;;;;;;;9.48;100.00;101735.66;5069985;28;20047;-78
2024/03/22 10:04:50;;;;;;;26.98;8.50;;;;;;;9.52;100.00;101724.25;5072875;28;20051;-78
2024/03/22 10:07:16;;;;;;;19.88;7.82;;;;;;;9.51;100.00;101730.38;5071404;28;20047;-77
2024/03/22 10:09:43;;;;;;;28.50;9.77;;;;;;;9.56;100.00;101729.38;5072564;28;20028;-78
2024/03/22 10:12:08;;;;;;;19.77;8.13;;;;;;;9.56;100.00;101729.38;5070995;28;20078;-77
2024/03/22 10:14:34;;;;;;;19.58;8.57;;;;;;;9.52;100.00;101737.34;5066571;28;20040;-78
2024/03/22 10:17:00;;;;;;;18.75;8.75;;;;;;;9.46;100.00;101733.09;5067497;28;20029;-78
2024/03/22 10:19:25;;;;;;;18.98;8.20;;;;;;;9.52;100.00;101732.09;5071227;28;20067;-78
2024/03/22 10:22:01;;;;;;;24.85;8.48;;;;;;;9.52;100.00;101732.94;5071238;28;20036;-78
2024/03/22 10:24:26;;;;;;;26.02;8.93;;;;;;;9.51;100.00;101732.97;5054568;28;20023;-77
2024/03/22 10:26:52;;;;;;;23.95;9.13;;;;;;;9.47;100.00;101734.81;5069554;28;20040;-77
2024/03/22 10:29:20;;;;;;;15.77;8.43;;;;;;;9.48;100.00;101739.16;5072865;28;20032;-78
2024/03/22 10:31:46;;;;;;;24.58;9.43;;;;;;;9.40;100.00;101735.81;5071476;28;20043;-78
2024/03/22 10:34:13;;;;;;;24.48;10.25;;;;;;;9.39;100.00;101732.38;5071563;28;20038;-78
2024/03/22 10:36:40;;;;;;;22.23;10.05;;;;;;;9.34;100.00;101743.81;5055209;28;20375;-78
2024/03/22 10:39:06;;;;;;;16.35;9.50;;;;;;;9.39;100.00;101742.81;5071128;28;20071;-78
2024/03/22 10:41:31;;;;;;;22.17;10.30;;;;;;;9.45;100.00;101738.34;5053237;28;20035;-78
2024/03/22 10:43:58;;;;;;;23.00;11.32;;;;;;;9.49;100.00;101737.38;5068343;28;20040;-78
2024/03/22 10:46:30;;;;;;;19.23;10.25;;;;;;;9.52;100.00;101737.34;5071968;28;20043;-78
2024/03/22 10:48:56;;;;;;;22.05;10.85;;;;;;;9.45;100.00;101735.75;5067720;28;20048;-78
2024/03/22 10:51:24;;;;;;;21.60;10.68;;;;;;;9.46;100.00;101732.22;5065677;28;20091;-78
2024/03/22 10:53:54;;;;;;;25.25;11.23;;;;;;;9.46;100.00;101735.72;5071548;28;20375;-78
2024/03/22 10:56:23;;;;;;;14.50;9.95;;;;;;;9.53;100.00;101733.81;5069624;28;20123;-78
2024/03/22 10:58:49;;;;;;;;;;;;;;;9.54;100.00;101738.16;5070833;28;20067;-78
2024/03/22 11:01:23;;;;;;;20.20;9.55;;;;;;;9.55;100.00;101726.78;5069922;28;19927;-78
2024/03/22 11:03:49;;;;;;;15.48;9.98;;;;;;;9.55;100.00;101732.00;5068482;28;20090;-79
2024/03/22 11:06:19;;;;;;;21.17;11.77;;;;;;;9.54;100.00;101727.69;5068869;28;20040;-78
2024/03/22 11:08:50;;;;;;;17.38;10.75;;;;;;;9.53;100.00;101724.22;5071051;28;20587;-78